Delta Virtual Airport Information Service

Santiago International Airport

ICAO: SCEL Country: Chile
Latitude: -33.3929 Longitude: -70.7858
Latest Arrival : DAC6996 (SEQM-SCEL) Latest Departure : DAC6996 (SCEL-MDPC)


WX CaptureLIVE
Data provided by noaa.gov | Fetched at 00:44:54

METAR : SCEL 120500Z AUTO 04004KT 020V100 9000 NCD 06/M01 Q1016

TAF : SCEL 112212Z 1200/1224 18007KT CAVOK TX26/1219Z TN05/1210Z BECMG 1201/1203 15004KT BECMG 1206/1208 8000 NSC TEMPO 1209/1214 VRB02KT 4000 HZ BECMG 1216/1218 18008KT CAVOK


Runway Data for SCEL
Data provided by openaviationdata.com

Runway ID Mag Var Hdg Length Elevation Surface ILS Freq ILS Id ILS Slope
17 4 173° 12318 ft 1555 ft Asphalt 110.3 IUEL 3
35 4 353° 12318 ft 1555 ft Asphalt -- -- --

Santiago International Airport, Chile
Use only for reference purposes



Not for navigational purposes.